Commerce City, CO (80022)

7:12 PM MST on December 26, 2014 (GMT -0700)
Stapleton | Change Station
CLOSE
Current Station
Personal Weather Station
Location: Denver, CO
Elevation: 5298 ft
Nearby Weather Stations

Elev 5298 ft 39.77 °N, 104.88 °W | Updated 2 minutes ago

Snow
Snow
15.1 °F
Feels Like 15 °F
N
0.0
Wind Variable Wind from SSE

Today
High -- | Low -- °F
--% Chance of Precip.
Yesterday
High -- | Low -- °F
Precip. -- in
7:19 AM 4:41 PM
Waxing Crescent, 31% visible
Pressure 30.20 in
Visibility 5.0 miles
Clouds Mostly Cloudy 5500 ft
Overcast 7000 ft
Windchill 15 °F
Dew Point 12 °F
Humidity 88%
Rainfall 0.00 in
Snow Depth Not available.
UV 0 out of 12
Pollen .10 out of 12
Air Quality Not available.
Flu Activity Not available.
METAR KDEN 270153Z 01004KT 5SM -SN BR BKN055 OVC070 M11/M12 A3002 RMK AO2 SLP227 P0000 T11061117 $

More Conditions Fewer Conditions

Pressure 30.20 in
Visibility 5.0 miles
Clouds Mostly Cloudy 5500 ft
Overcast 7000 ft
Windchill 15 °F
Dew Point 12 °F
Humidity 88%
Rainfall 0.00 in
Snow Depth Not available.
UV 0 out of 12
Pollen .10 out of 12
Air Quality Not available.
Flu Activity Not available.
METAR KDEN 270153Z 01004KT 5SM -SN BR BKN055 OVC070 M11/M12 A3002 RMK AO2 SLP227 P0000 T11061117 $

More Conditions Fewer Conditions

Nowcast | as of 4:57 PM MST on December 26, 2014

Scattered light snow will continue falling from the foothills eastward across the I-25 urban corridor and onto the plains through 6 PM. Little or no new additional accumulation is expected.

×

10-Day Weather Forecast

Almanac

Astronomy

Dec. 26, 2014 Rise Set
Actual Time
Civil Twilight
Nautical Twilight
Astronomical Twilight
Moon
Length of Visible Light
Length of Day
Tomorrow will be .
, % of the Moon is Illuminated

Today's Extremes

State Highs State Lows

Community

WunderPhotos

Upload Photos

1,780,811 photos uploaded!

WunderBlogs® & News

Nearby

Air Quality

  Air Quality AQ Index Pollutant
Not available.

Snow Depth

Station Depth Elevation

Earthquake Activity

City Distance Mag. Time & Date
Minimum magnitude displayed is 2.5.

Coastal Water Temperatures

Place Temperature

Nearby Weather Stations